EZY25C EGCC-EGPH
Flight info
| Callsign | EZY25C |
|---|---|
| Flight time | 0h 37m |
| Altitude | 24000 |
| Route | POL N601 INPIP |
| Aircraft | A20N/M-SDE2E3FGHIRWXY/LB1 |
Departure
| Time | 2026-04-24 13:13 |
|---|---|
| Airport | Manchester Airport (EGCC) |
Arrival
| Time | 2026-04-24 13:50 |
|---|---|
| Airport | Edinburgh Airport (EGPH) |
| Time | Latitude | Longitude | Altitude | Speed | Heading |
|---|---|---|---|---|---|
| 2026-04-24 12:57 | 53.36635 | -2.28597 | 215 ft | 0 kts | 134° |
| 2026-04-24 13:02 | 53.36637 | -2.28600 | 215 ft | 2 kts | 135° |
| 2026-04-24 13:02 | 53.36647 | -2.28617 | 215 ft | 2 kts | 134° |
| 2026-04-24 13:03 | 53.36657 | -2.28635 | 215 ft | 2 kts | 136° |
| 2026-04-24 13:03 | 53.36671 | -2.28644 | 216 ft | 2 kts | 183° |
| 2026-04-24 13:03 | 53.36684 | -2.28637 | 216 ft | 1 kts | 219° |
| 2026-04-24 13:03 | 53.36688 | -2.28629 | 216 ft | 1 kts | 228° |
| 2026-04-24 13:04 | 53.36690 | -2.28626 | 216 ft | 0 kts | 225° |
| 2026-04-24 13:06 | 53.36684 | -2.28635 | 216 ft | 4 kts | 225° |
| 2026-04-24 13:06 | 53.36655 | -2.28688 | 216 ft | 6 kts | 242° |
| 2026-04-24 13:06 | 53.36639 | -2.28759 | 217 ft | 7 kts | 227° |
| 2026-04-24 13:07 | 53.36560 | -2.28729 | 217 ft | 17 kts | 134° |
| 2026-04-24 13:07 | 53.36469 | -2.28574 | 215 ft | 19 kts | 135° |
| 2026-04-24 13:07 | 53.36402 | -2.28396 | 216 ft | 17 kts | 118° |
| 2026-04-24 13:07 | 53.36328 | -2.28256 | 222 ft | 13 kts | 134° |
| 2026-04-24 13:08 | 53.36270 | -2.28157 | 228 ft | 11 kts | 134° |
| 2026-04-24 13:08 | 53.36205 | -2.28047 | 233 ft | 14 kts | 135° |
| 2026-04-24 13:08 | 53.36123 | -2.27913 | 237 ft | 18 kts | 137° |
| 2026-04-24 13:09 | 53.35919 | -2.27730 | 240 ft | 16 kts | 181° |
| 2026-04-24 13:09 | 53.35815 | -2.27730 | 240 ft | 13 kts | 162° |
| 2026-04-24 13:09 | 53.35740 | -2.27647 | 242 ft | 12 kts | 160° |
| 2026-04-24 13:09 | 53.35660 | -2.27586 | 243 ft | 12 kts | 141° |
| 2026-04-24 13:10 | 53.35617 | -2.27477 | 245 ft | 10 kts | 78° |
| 2026-04-24 13:10 | 53.35659 | -2.27375 | 247 ft | 11 kts | 49° |
| 2026-04-24 13:10 | 53.35730 | -2.27236 | 253 ft | 19 kts | 51° |
| 2026-04-24 13:10 | 53.35820 | -2.27034 | 263 ft | 24 kts | 63° |
| 2026-04-24 13:11 | 53.35925 | -2.26773 | 268 ft | 30 kts | 55° |
| 2026-04-24 13:11 | 53.36034 | -2.26544 | 267 ft | 16 kts | 52° |
| 2026-04-24 13:11 | 53.36104 | -2.26390 | 266 ft | 17 kts | 54° |
| 2026-04-24 13:11 | 53.36131 | -2.26237 | 263 ft | 15 kts | 132° |
| 2026-04-24 13:12 | 53.36064 | -2.26144 | 263 ft | 4 kts | 147° |
| 2026-04-24 13:12 | 53.36035 | -2.26142 | 264 ft | 4 kts | 203° |
| 2026-04-24 13:12 | 53.35943 | -2.26318 | 267 ft | 54 kts | 231° |
| 2026-04-24 13:12 | 53.35541 | -2.27154 | 255 ft | 129 kts | 231° |
| 2026-04-24 13:13 | 53.34874 | -2.28562 | 468 ft | 166 kts | 230° |
| 2026-04-24 13:13 | 53.34156 | -2.30081 | 1133 ft | 172 kts | 230° |
| 2026-04-24 13:13 | 53.33431 | -2.31616 | 1905 ft | 173 kts | 229° |
| 2026-04-24 13:13 | 53.32673 | -2.33212 | 2478 ft | 185 kts | 231° |
| 2026-04-24 13:14 | 53.32182 | -2.35270 | 2952 ft | 204 kts | 270° |
| 2026-04-24 13:14 | 53.32607 | -2.37605 | 3441 ft | 221 kts | 298° |
| 2026-04-24 13:14 | 53.33453 | -2.39826 | 3933 ft | 239 kts | 314° |
| 2026-04-24 13:14 | 53.34861 | -2.41398 | 4484 ft | 255 kts | 340° |
| 2026-04-24 13:15 | 53.36601 | -2.42298 | 5143 ft | 269 kts | 347° |
| 2026-04-24 13:15 | 53.38414 | -2.43104 | 6061 ft | 274 kts | 346° |
| 2026-04-24 13:15 | 53.40228 | -2.43968 | 7058 ft | 276 kts | 345° |
| 2026-04-24 13:15 | 53.42044 | -2.44892 | 8007 ft | 279 kts | 344° |
| 2026-04-24 13:16 | 53.43901 | -2.45873 | 8940 ft | 283 kts | 343° |
| 2026-04-24 13:16 | 53.45798 | -2.46575 | 9834 ft | 285 kts | 1° |
| 2026-04-24 13:16 | 53.47695 | -2.45836 | 10724 ft | 287 kts | 28° |
| 2026-04-24 13:16 | 53.49337 | -2.43905 | 11344 ft | 300 kts | 39° |
| 2026-04-24 13:17 | 53.51009 | -2.41616 | 11847 ft | 319 kts | 39° |
| 2026-04-24 13:17 | 53.52784 | -2.39196 | 12309 ft | 337 kts | 39° |
| 2026-04-24 13:17 | 53.54662 | -2.36673 | 12710 ft | 356 kts | 39° |
| 2026-04-24 13:17 | 53.56618 | -2.34067 | 13072 ft | 374 kts | 39° |
| 2026-04-24 13:18 | 53.58728 | -2.31258 | 13377 ft | 391 kts | 39° |
| 2026-04-24 13:18 | 53.60878 | -2.28397 | 13714 ft | 406 kts | 38° |
| 2026-04-24 13:18 | 53.63097 | -2.25440 | 14317 ft | 412 kts | 38° |
| 2026-04-24 13:18 | 53.65364 | -2.22413 | 14995 ft | 415 kts | 38° |
| 2026-04-24 13:19 | 53.67606 | -2.19417 | 15642 ft | 419 kts | 38° |
| 2026-04-24 13:19 | 53.69899 | -2.16351 | 16261 ft | 424 kts | 38° |
| 2026-04-24 13:19 | 53.72399 | -2.13754 | 16835 ft | 428 kts | 22° |
| 2026-04-24 13:19 | 53.75291 | -2.12604 | 17424 ft | 431 kts | 4° |
| 2026-04-24 13:20 | 53.78238 | -2.13013 | 18019 ft | 433 kts | 346° |
| 2026-04-24 13:20 | 53.81098 | -2.14751 | 18642 ft | 436 kts | 338° |
| 2026-04-24 13:20 | 53.83901 | -2.16725 | 19190 ft | 440 kts | 338° |
| 2026-04-24 13:20 | 53.86715 | -2.18707 | 19707 ft | 444 kts | 338° |
| 2026-04-24 13:21 | 53.89573 | -2.20687 | 20256 ft | 447 kts | 338° |
| 2026-04-24 13:21 | 53.92450 | -2.22664 | 20787 ft | 450 kts | 338° |
| 2026-04-24 13:21 | 53.95353 | -2.24659 | 21314 ft | 453 kts | 338° |
| 2026-04-24 13:21 | 53.98248 | -2.26651 | 21832 ft | 456 kts | 338° |
| 2026-04-24 13:22 | 54.01189 | -2.28675 | 22342 ft | 459 kts | 338° |
| 2026-04-24 13:22 | 54.04163 | -2.30726 | 22820 ft | 461 kts | 338° |
| 2026-04-24 13:22 | 54.07114 | -2.32766 | 23266 ft | 464 kts | 338° |
| 2026-04-24 13:22 | 54.10088 | -2.34829 | 23722 ft | 465 kts | 338° |
| 2026-04-24 13:23 | 54.13087 | -2.36909 | 24123 ft | 467 kts | 338° |
| 2026-04-24 13:23 | 54.16131 | -2.39026 | 24269 ft | 469 kts | 338° |
| 2026-04-24 13:23 | 54.19099 | -2.41090 | 24269 ft | 468 kts | 338° |
| 2026-04-24 13:23 | 54.22130 | -2.43199 | 24276 ft | 467 kts | 339° |
| 2026-04-24 13:24 | 54.25138 | -2.45289 | 24276 ft | 467 kts | 339° |
| 2026-04-24 13:24 | 54.28119 | -2.47362 | 24277 ft | 466 kts | 339° |
| 2026-04-24 13:24 | 54.31122 | -2.49458 | 24275 ft | 467 kts | 339° |
| 2026-04-24 13:24 | 54.34108 | -2.51549 | 24275 ft | 467 kts | 339° |
| 2026-04-24 13:25 | 54.37106 | -2.53651 | 24279 ft | 468 kts | 339° |
| 2026-04-24 13:25 | 54.40119 | -2.55765 | 24275 ft | 468 kts | 339° |
| 2026-04-24 13:25 | 54.43128 | -2.57882 | 24279 ft | 468 kts | 339° |
| 2026-04-24 13:25 | 54.46120 | -2.59989 | 24280 ft | 469 kts | 339° |
| 2026-04-24 13:26 | 54.49110 | -2.62101 | 24280 ft | 469 kts | 339° |
| 2026-04-24 13:26 | 54.52116 | -2.64223 | 24282 ft | 469 kts | 339° |
| 2026-04-24 13:26 | 54.55130 | -2.66357 | 24280 ft | 469 kts | 339° |
| 2026-04-24 13:26 | 54.58155 | -2.68502 | 24272 ft | 470 kts | 339° |
| 2026-04-24 13:27 | 54.61149 | -2.70628 | 24283 ft | 470 kts | 339° |
| 2026-04-24 13:27 | 54.64176 | -2.72784 | 24275 ft | 470 kts | 339° |
| 2026-04-24 13:27 | 54.67167 | -2.74919 | 24274 ft | 470 kts | 339° |
| 2026-04-24 13:27 | 54.70206 | -2.77089 | 24268 ft | 470 kts | 339° |
| 2026-04-24 13:28 | 54.73211 | -2.79236 | 24265 ft | 470 kts | 339° |
| 2026-04-24 13:28 | 54.76230 | -2.81398 | 24272 ft | 469 kts | 339° |
| 2026-04-24 13:28 | 54.79230 | -2.83548 | 24267 ft | 469 kts | 339° |
| 2026-04-24 13:28 | 54.82251 | -2.85718 | 24266 ft | 470 kts | 339° |
| 2026-04-24 13:29 | 54.85245 | -2.87875 | 24262 ft | 470 kts | 339° |
| 2026-04-24 13:29 | 54.88269 | -2.90055 | 24259 ft | 471 kts | 339° |
| 2026-04-24 13:29 | 54.91270 | -2.92219 | 24265 ft | 471 kts | 339° |
| 2026-04-24 13:29 | 54.94301 | -2.94407 | 24265 ft | 472 kts | 339° |
| 2026-04-24 13:30 | 54.97317 | -2.96593 | 24268 ft | 472 kts | 339° |
| 2026-04-24 13:30 | 55.00299 | -2.98754 | 24269 ft | 472 kts | 339° |
| 2026-04-24 13:30 | 55.03350 | -3.00975 | 24265 ft | 472 kts | 339° |
| 2026-04-24 13:30 | 55.06356 | -3.03163 | 24269 ft | 472 kts | 339° |
| 2026-04-24 13:31 | 55.09353 | -3.05348 | 24269 ft | 471 kts | 339° |
| 2026-04-24 13:31 | 55.12355 | -3.07543 | 24096 ft | 465 kts | 339° |
| 2026-04-24 13:31 | 55.15344 | -3.09731 | 23367 ft | 461 kts | 339° |
| 2026-04-24 13:31 | 55.18258 | -3.11865 | 22432 ft | 459 kts | 338° |
| 2026-04-24 13:32 | 55.21189 | -3.14013 | 21558 ft | 455 kts | 338° |
| 2026-04-24 13:32 | 55.24043 | -3.16110 | 20761 ft | 450 kts | 338° |
| 2026-04-24 13:32 | 55.26913 | -3.18224 | 19962 ft | 445 kts | 338° |
| 2026-04-24 13:32 | 55.29752 | -3.20053 | 19234 ft | 438 kts | 347° |
| 2026-04-24 13:33 | 55.32731 | -3.20375 | 18593 ft | 429 kts | 4° |
| 2026-04-24 13:33 | 55.35688 | -3.19902 | 17984 ft | 421 kts | 6° |
| 2026-04-24 13:33 | 55.38548 | -3.19329 | 17402 ft | 414 kts | 6° |
| 2026-04-24 13:33 | 55.41387 | -3.18778 | 16828 ft | 407 kts | 6° |
| 2026-04-24 13:34 | 55.44172 | -3.18275 | 16273 ft | 400 kts | 5° |
| 2026-04-24 13:34 | 55.46905 | -3.17810 | 15739 ft | 393 kts | 5° |
| 2026-04-24 13:34 | 55.49590 | -3.17371 | 15207 ft | 387 kts | 5° |
| 2026-04-24 13:34 | 55.52211 | -3.16951 | 14692 ft | 380 kts | 5° |
| 2026-04-24 13:35 | 55.54812 | -3.16537 | 14110 ft | 364 kts | 5° |
| 2026-04-24 13:35 | 55.57242 | -3.16152 | 13255 ft | 352 kts | 5° |
| 2026-04-24 13:35 | 55.59631 | -3.15775 | 12394 ft | 341 kts | 4° |
| 2026-04-24 13:35 | 55.61955 | -3.15407 | 11561 ft | 330 kts | 4° |
| 2026-04-24 13:36 | 55.64181 | -3.15056 | 10756 ft | 320 kts | 4° |
| 2026-04-24 13:36 | 55.66361 | -3.14711 | 9965 ft | 311 kts | 4° |
| 2026-04-24 13:36 | 55.68459 | -3.14380 | 9210 ft | 303 kts | 4° |
| 2026-04-24 13:36 | 55.70520 | -3.14364 | 8532 ft | 290 kts | 347° |
| 2026-04-24 13:37 | 55.72255 | -3.15927 | 7831 ft | 281 kts | 314° |
| 2026-04-24 13:37 | 55.73175 | -3.18782 | 7355 ft | 266 kts | 285° |
| 2026-04-24 13:37 | 55.73524 | -3.21913 | 7027 ft | 249 kts | 279° |
| 2026-04-24 13:37 | 55.73807 | -3.24935 | 6990 ft | 248 kts | 281° |
| 2026-04-24 13:38 | 55.74141 | -3.27919 | 6966 ft | 248 kts | 283° |
| 2026-04-24 13:38 | 55.74408 | -3.30982 | 6983 ft | 258 kts | 274° |
| 2026-04-24 13:38 | 55.74438 | -3.34106 | 7044 ft | 253 kts | 270° |
| 2026-04-24 13:38 | 55.74414 | -3.37164 | 6899 ft | 245 kts | 270° |
| 2026-04-24 13:39 | 55.74381 | -3.40152 | 6704 ft | 238 kts | 270° |
| 2026-04-24 13:39 | 55.74346 | -3.43058 | 6416 ft | 236 kts | 270° |
| 2026-04-24 13:39 | 55.74314 | -3.45932 | 6105 ft | 235 kts | 270° |
| 2026-04-24 13:39 | 55.74283 | -3.48825 | 5796 ft | 234 kts | 270° |
| 2026-04-24 13:40 | 55.74349 | -3.51701 | 5539 ft | 232 kts | 277° |
| 2026-04-24 13:40 | 55.74567 | -3.54535 | 5289 ft | 232 kts | 279° |
| 2026-04-24 13:40 | 55.74812 | -3.57330 | 5026 ft | 232 kts | 280° |
| 2026-04-24 13:40 | 55.75066 | -3.60167 | 4721 ft | 232 kts | 280° |
| 2026-04-24 13:41 | 55.75320 | -3.62985 | 4419 ft | 231 kts | 280° |
| 2026-04-24 13:41 | 55.75571 | -3.65756 | 4121 ft | 230 kts | 279° |
| 2026-04-24 13:41 | 55.75823 | -3.68527 | 3954 ft | 222 kts | 279° |
| 2026-04-24 13:41 | 55.76064 | -3.71174 | 3951 ft | 219 kts | 279° |
| 2026-04-24 13:42 | 55.76306 | -3.73842 | 3942 ft | 213 kts | 280° |
| 2026-04-24 13:42 | 55.76720 | -3.76266 | 3926 ft | 198 kts | 295° |
| 2026-04-24 13:42 | 55.77473 | -3.78222 | 3917 ft | 197 kts | 323° |
| 2026-04-24 13:42 | 55.78684 | -3.79395 | 3943 ft | 197 kts | 342° |
| 2026-04-24 13:43 | 55.80019 | -3.79450 | 3932 ft | 198 kts | 19° |
| 2026-04-24 13:43 | 55.81124 | -3.78044 | 3954 ft | 199 kts | 51° |
| 2026-04-24 13:43 | 55.81879 | -3.76102 | 4016 ft | 182 kts | 56° |
| 2026-04-24 13:43 | 55.82509 | -3.74311 | 3941 ft | 161 kts | 57° |
| 2026-04-24 13:44 | 55.83075 | -3.72648 | 3929 ft | 154 kts | 58° |
| 2026-04-24 13:44 | 55.83615 | -3.71044 | 3962 ft | 151 kts | 58° |
| 2026-04-24 13:44 | 55.84146 | -3.69463 | 3943 ft | 149 kts | 58° |
| 2026-04-24 13:44 | 55.84683 | -3.67867 | 3776 ft | 149 kts | 57° |
| 2026-04-24 13:45 | 55.85210 | -3.66296 | 3582 ft | 148 kts | 57° |
| 2026-04-24 13:45 | 55.85733 | -3.64743 | 3390 ft | 147 kts | 57° |
| 2026-04-24 13:45 | 55.86259 | -3.63189 | 3199 ft | 146 kts | 57° |
| 2026-04-24 13:45 | 55.86778 | -3.61658 | 3012 ft | 145 kts | 57° |
| 2026-04-24 13:46 | 55.87291 | -3.60104 | 2838 ft | 144 kts | 58° |
| 2026-04-24 13:46 | 55.87790 | -3.58569 | 2650 ft | 144 kts | 59° |
| 2026-04-24 13:46 | 55.88297 | -3.57044 | 2456 ft | 143 kts | 58° |
| 2026-04-24 13:46 | 55.88808 | -3.55518 | 2269 ft | 143 kts | 59° |
| 2026-04-24 13:47 | 55.89309 | -3.53990 | 2079 ft | 143 kts | 59° |
| 2026-04-24 13:47 | 55.89820 | -3.52481 | 1892 ft | 142 kts | 58° |
| 2026-04-24 13:47 | 55.90335 | -3.50981 | 1724 ft | 141 kts | 58° |
| 2026-04-24 13:47 | 55.90853 | -3.49500 | 1530 ft | 141 kts | 57° |
| 2026-04-24 13:48 | 55.91362 | -3.48029 | 1309 ft | 139 kts | 58° |
| 2026-04-24 13:48 | 55.91853 | -3.46550 | 1118 ft | 138 kts | 59° |
| 2026-04-24 13:48 | 55.92338 | -3.45095 | 963 ft | 137 kts | 58° |
| 2026-04-24 13:48 | 55.92832 | -3.43662 | 796 ft | 136 kts | 58° |
| 2026-04-24 13:49 | 55.93312 | -3.42202 | 599 ft | 135 kts | 58° |
| 2026-04-24 13:49 | 55.93803 | -3.40783 | 420 ft | 135 kts | 58° |
| 2026-04-24 13:49 | 55.94281 | -3.39361 | 234 ft | 133 kts | 58° |
| 2026-04-24 13:49 | 55.94758 | -3.37963 | 105 ft | 127 kts | 59° |
| 2026-04-24 13:50 | 55.95129 | -3.36865 | 101 ft | 78 kts | 58° |
| 2026-04-24 13:50 | 55.95363 | -3.36180 | 104 ft | 54 kts | 58° |
| 2026-04-24 13:50 | 55.95528 | -3.35691 | 101 ft | 28 kts | 57° |
| 2026-04-24 13:50 | 55.95562 | -3.35517 | 101 ft | 10 kts | 147° |
| 2026-04-24 13:51 | 55.95503 | -3.35445 | 102 ft | 9 kts | 146° |
| 2026-04-24 13:51 | 55.95443 | -3.35407 | 104 ft | 8 kts | 198° |
| 2026-04-24 13:51 | 55.95399 | -3.35500 | 103 ft | 11 kts | 239° |
| 2026-04-24 13:51 | 55.95359 | -3.35621 | 103 ft | 11 kts | 239° |
| 2026-04-24 13:52 | 55.95316 | -3.35746 | 104 ft | 12 kts | 237° |
| 2026-04-24 13:52 | 55.95282 | -3.35845 | 104 ft | 10 kts | 238° |
| 2026-04-24 13:52 | 55.95246 | -3.35951 | 104 ft | 9 kts | 238° |
| 2026-04-24 13:52 | 55.95190 | -3.35977 | 104 ft | 10 kts | 148° |
| 2026-04-24 13:53 | 55.95130 | -3.35900 | 105 ft | 10 kts | 124° |
| 2026-04-24 13:53 | 55.95085 | -3.35793 | 106 ft | 10 kts | 160° |
| 2026-04-24 13:53 | 55.95017 | -3.35832 | 107 ft | 10 kts | 208° |
| 2026-04-24 13:53 | 55.94945 | -3.35864 | 107 ft | 11 kts | 155° |
| 2026-04-24 13:54 | 55.94897 | -3.35744 | 107 ft | 12 kts | 118° |
| 2026-04-24 13:54 | 55.94871 | -3.35660 | 107 ft | 2 kts | 118° |
| 2026-04-24 13:54 | 55.94862 | -3.35640 | 108 ft | 1 kts | 155° |
| 2026-04-24 13:54 | 55.94843 | -3.35644 | 108 ft | 4 kts | 201° |
| 2026-04-24 13:55 | 55.94809 | -3.35673 | 108 ft | 5 kts | 207° |
| 2026-04-24 13:55 | 55.94798 | -3.35684 | 108 ft | 0 kts | 208° |